sensor_id;sensor_type;location;lat;lon;timestamp;P1;durP1;ratioP1;P2;durP2;ratioP2
16977;SDS011;8605;52.548;4.918;2023-11-21T00:00:52;1699.43;;;999.90;;
16977;SDS011;8605;52.548;4.918;2023-11-21T00:03:20;1740.30;;;999.90;;
16977;SDS011;8605;52.548;4.918;2023-11-21T00:05:50;1722.13;;;999.90;;
16977;SDS011;8605;52.548;4.918;2023-11-21T00:08:18;1744.80;;;999.90;;
16977;SDS011;8605;52.548;4.918;2023-11-21T00:10:48;1715.53;;;999.90;;
16977;SDS011;8605;52.548;4.918;2023-11-21T00:13:16;1745.23;;;999.90;;
16977;SDS011;8605;52.548;4.918;2023-11-21T00:15:44;1690.17;;;999.90;;
16977;SDS011;8605;52.548;4.918;2023-11-21T00:18:12;1692.50;;;999.90;;
16977;SDS011;8605;52.548;4.918;2023-11-21T00:20:40;1727.00;;;999.90;;
16977;SDS011;8605;52.548;4.918;2023-11-21T00:23:08;1684.60;;;999.90;;
16977;SDS011;8605;52.548;4.918;2023-11-21T00:25:38;1825.53;;;999.90;;
16977;SDS011;8605;52.548;4.918;2023-11-21T00:28:08;1791.77;;;999.90;;
16977;SDS011;8605;52.548;4.918;2023-11-21T00:30:36;1663.80;;;999.90;;
16977;SDS011;8605;52.548;4.918;2023-11-21T00:33:04;1644.73;;;999.90;;
16977;SDS011;8605;52.548;4.918;2023-11-21T00:35:32;1622.50;;;999.90;;
16977;SDS011;8605;52.548;4.918;2023-11-21T00:37:59;1724.40;;;999.90;;
16977;SDS011;8605;52.548;4.918;2023-11-21T00:40:27;1655.90;;;999.90;;
16977;SDS011;8605;52.548;4.918;2023-11-21T00:42:55;1686.87;;;999.90;;
16977;SDS011;8605;52.548;4.918;2023-11-21T00:45:25;1769.47;;;999.90;;
16977;SDS011;8605;52.548;4.918;2023-11-21T00:47:53;1701.07;;;999.90;;
16977;SDS011;8605;52.548;4.918;2023-11-21T00:50:21;1681.00;;;999.90;;
16977;SDS011;8605;52.548;4.918;2023-11-21T00:52:49;1689.80;;;999.90;;
16977;SDS011;8605;52.548;4.918;2023-11-21T00:55:17;1643.60;;;999.90;;
16977;SDS011;8605;52.548;4.918;2023-11-21T00:57:45;1701.90;;;999.90;;
16977;SDS011;8605;52.548;4.918;2023-11-21T01:00:14;1681.33;;;999.90;;
16977;SDS011;8605;52.548;4.918;2023-11-21T01:02:45;1683.33;;;999.90;;
16977;SDS011;8605;52.548;4.918;2023-11-21T01:05:13;1712.27;;;999.90;;
16977;SDS011;8605;52.548;4.918;2023-11-21T01:07:41;1700.50;;;999.90;;
16977;SDS011;8605;52.548;4.918;2023-11-21T01:10:09;1674.63;;;999.90;;
16977;SDS011;8605;52.548;4.918;2023-11-21T01:12:37;1683.73;;;999.90;;
16977;SDS011;8605;52.548;4.918;2023-11-21T01:15:06;1638.23;;;999.90;;
16977;SDS011;8605;52.548;4.918;2023-11-21T01:17:35;1650.57;;;999.90;;
16977;SDS011;8605;52.548;4.918;2023-11-21T01:20:04;1695.70;;;999.90;;
16977;SDS011;8605;52.548;4.918;2023-11-21T01:22:38;1640.80;;;999.90;;
16977;SDS011;8605;52.548;4.918;2023-11-21T01:25:06;1687.73;;;999.90;;
16977;SDS011;8605;52.548;4.918;2023-11-21T01:27:34;1676.47;;;999.90;;
16977;SDS011;8605;52.548;4.918;2023-11-21T01:30:03;1686.67;;;999.90;;
16977;SDS011;8605;52.548;4.918;2023-11-21T01:32:33;1698.97;;;999.90;;
16977;SDS011;8605;52.548;4.918;2023-11-21T01:35:01;1713.53;;;999.90;;
16977;SDS011;8605;52.548;4.918;2023-11-21T01:37:30;1750.73;;;999.90;;
16977;SDS011;8605;52.548;4.918;2023-11-21T01:39:58;1707.53;;;999.90;;
16977;SDS011;8605;52.548;4.918;2023-11-21T01:42:27;1727.30;;;999.90;;
16977;SDS011;8605;52.548;4.918;2023-11-21T01:44:55;1739.43;;;999.90;;
16977;SDS011;8605;52.548;4.918;2023-11-21T01:47:23;1771.87;;;999.90;;
16977;SDS011;8605;52.548;4.918;2023-11-21T01:49:51;1757.37;;;999.90;;
16977;SDS011;8605;52.548;4.918;2023-11-21T01:52:19;1688.63;;;999.90;;
16977;SDS011;8605;52.548;4.918;2023-11-21T01:54:49;1689.03;;;999.90;;
16977;SDS011;8605;52.548;4.918;2023-11-21T01:57:18;1736.47;;;999.90;;
16977;SDS011;8605;52.548;4.918;2023-11-21T01:59:47;1704.37;;;999.90;;
16977;SDS011;8605;52.548;4.918;2023-11-21T02:02:16;1785.27;;;999.90;;
16977;SDS011;8605;52.548;4.918;2023-11-21T02:04:44;1713.47;;;999.90;;
16977;SDS011;8605;52.548;4.918;2023-11-21T02:07:11;1701.87;;;999.90;;
16977;SDS011;8605;52.548;4.918;2023-11-21T02:09:39;1735.10;;;999.90;;
16977;SDS011;8605;52.548;4.918;2023-11-21T02:12:10;1797.53;;;999.90;;
16977;SDS011;8605;52.548;4.918;2023-11-21T02:14:38;1674.23;;;999.90;;
16977;SDS011;8605;52.548;4.918;2023-11-21T02:17:05;1697.33;;;999.90;;
16977;SDS011;8605;52.548;4.918;2023-11-21T02:19:34;1635.43;;;999.90;;
16977;SDS011;8605;52.548;4.918;2023-11-21T02:22:01;1708.50;;;999.90;;
16977;SDS011;8605;52.548;4.918;2023-11-21T02:24:34;1688.20;;;999.90;;
16977;SDS011;8605;52.548;4.918;2023-11-21T02:27:03;1719.53;;;999.90;;
16977;SDS011;8605;52.548;4.918;2023-11-21T02:29:32;1700.87;;;999.90;;
16977;SDS011;8605;52.548;4.918;2023-11-21T02:32:00;1585.63;;;999.90;;
16977;SDS011;8605;52.548;4.918;2023-11-21T02:34:28;1687.97;;;999.90;;
16977;SDS011;8605;52.548;4.918;2023-11-21T02:36:55;1673.13;;;999.90;;
16977;SDS011;8605;52.548;4.918;2023-11-21T02:39:23;1668.07;;;999.90;;
16977;SDS011;8605;52.548;4.918;2023-11-21T02:41:53;1684.37;;;999.90;;
16977;SDS011;8605;52.548;4.918;2023-11-21T02:44:20;1654.20;;;999.90;;
16977;SDS011;8605;52.548;4.918;2023-11-21T02:46:48;1712.97;;;999.90;;
16977;SDS011;8605;52.548;4.918;2023-11-21T02:49:16;1624.30;;;999.90;;
16977;SDS011;8605;52.548;4.918;2023-11-21T02:51:44;1641.37;;;999.90;;
16977;SDS011;8605;52.548;4.918;2023-11-21T02:54:11;1661.20;;;999.90;;
16977;SDS011;8605;52.548;4.918;2023-11-21T02:56:39;1628.47;;;999.90;;
16977;SDS011;8605;52.548;4.918;2023-11-21T02:59:08;1714.33;;;999.90;;
16977;SDS011;8605;52.548;4.918;2023-11-21T03:01:36;1736.53;;;999.90;;
16977;SDS011;8605;52.548;4.918;2023-11-21T03:04:04;1664.17;;;999.90;;
16977;SDS011;8605;52.548;4.918;2023-11-21T03:06:33;1728.63;;;999.90;;
16977;SDS011;8605;52.548;4.918;2023-11-21T03:09:01;1663.63;;;999.90;;
16977;SDS011;8605;52.548;4.918;2023-11-21T03:11:28;1761.30;;;999.90;;
16977;SDS011;8605;52.548;4.918;2023-11-21T03:13:56;1640.80;;;999.90;;
16977;SDS011;8605;52.548;4.918;2023-11-21T03:16:25;1661.60;;;999.90;;
16977;SDS011;8605;52.548;4.918;2023-11-21T03:18:53;1598.10;;;999.90;;
16977;SDS011;8605;52.548;4.918;2023-11-21T03:21:21;1689.53;;;999.90;;
16977;SDS011;8605;52.548;4.918;2023-11-21T03:23:48;1600.60;;;999.90;;
16977;SDS011;8605;52.548;4.918;2023-11-21T03:26:16;1645.30;;;999.90;;
16977;SDS011;8605;52.548;4.918;2023-11-21T03:28:44;1573.07;;;999.90;;
16977;SDS011;8605;52.548;4.918;2023-11-21T03:31:12;1620.53;;;999.90;;
16977;SDS011;8605;52.548;4.918;2023-11-21T03:33:41;1605.73;;;999.90;;
16977;SDS011;8605;52.548;4.918;2023-11-21T03:36:09;1632.67;;;999.90;;
16977;SDS011;8605;52.548;4.918;2023-11-21T03:38:37;1512.17;;;999.90;;
16977;SDS011;8605;52.548;4.918;2023-11-21T03:41:06;1602.50;;;999.90;;
16977;SDS011;8605;52.548;4.918;2023-11-21T03:43:33;1638.23;;;999.90;;
16977;SDS011;8605;52.548;4.918;2023-11-21T03:46:01;1663.23;;;999.90;;
16977;SDS011;8605;52.548;4.918;2023-11-21T03:48:29;1627.60;;;999.90;;
16977;SDS011;8605;52.548;4.918;2023-11-21T03:50:58;1667.00;;;999.90;;
16977;SDS011;8605;52.548;4.918;2023-11-21T03:53:26;1666.33;;;999.90;;
16977;SDS011;8605;52.548;4.918;2023-11-21T03:55:54;1668.87;;;999.90;;
16977;SDS011;8605;52.548;4.918;2023-11-21T03:58:22;1600.07;;;999.90;;
16977;SDS011;8605;52.548;4.918;2023-11-21T04:00:50;1560.50;;;999.90;;
16977;SDS011;8605;52.548;4.918;2023-11-21T04:03:17;1739.10;;;999.90;;
16977;SDS011;8605;52.548;4.918;2023-11-21T04:05:46;1598.07;;;999.90;;
16977;SDS011;8605;52.548;4.918;2023-11-21T04:08:15;1632.27;;;999.90;;
16977;SDS011;8605;52.548;4.918;2023-11-21T04:10:42;1534.30;;;999.90;;
16977;SDS011;8605;52.548;4.918;2023-11-21T04:13:10;1574.57;;;999.90;;
16977;SDS011;8605;52.548;4.918;2023-11-21T04:15:38;1561.43;;;999.90;;
16977;SDS011;8605;52.548;4.918;2023-11-21T04:18:06;1521.10;;;999.90;;
16977;SDS011;8605;52.548;4.918;2023-11-21T04:20:34;1496.13;;;999.90;;
16977;SDS011;8605;52.548;4.918;2023-11-21T04:23:02;1693.47;;;999.90;;
16977;SDS011;8605;52.548;4.918;2023-11-21T04:25:32;1615.60;;;999.90;;
16977;SDS011;8605;52.548;4.918;2023-11-21T04:27:59;1552.33;;;999.90;;
16977;SDS011;8605;52.548;4.918;2023-11-21T04:30:27;1616.43;;;999.90;;
16977;SDS011;8605;52.548;4.918;2023-11-21T04:32:55;1546.93;;;999.90;;
16977;SDS011;8605;52.548;4.918;2023-11-21T04:35:23;1566.13;;;999.90;;
16977;SDS011;8605;52.548;4.918;2023-11-21T04:37:51;1603.90;;;999.90;;
16977;SDS011;8605;52.548;4.918;2023-11-21T04:40:18;1682.37;;;999.90;;
16977;SDS011;8605;52.548;4.918;2023-11-21T04:42:48;1542.93;;;999.90;;
16977;SDS011;8605;52.548;4.918;2023-11-21T04:45:16;1601.33;;;999.90;;
16977;SDS011;8605;52.548;4.918;2023-11-21T04:47:44;1560.93;;;999.90;;
16977;SDS011;8605;52.548;4.918;2023-11-21T04:50:12;1535.30;;;999.90;;
16977;SDS011;8605;52.548;4.918;2023-11-21T04:52:39;1497.53;;;999.90;;
16977;SDS011;8605;52.548;4.918;2023-11-21T04:55:07;1585.10;;;999.90;;
16977;SDS011;8605;52.548;4.918;2023-11-21T04:57:37;1584.50;;;999.90;;
16977;SDS011;8605;52.548;4.918;2023-11-21T05:00:07;1650.53;;;999.90;;
16977;SDS011;8605;52.548;4.918;2023-11-21T05:02:36;1535.50;;;999.90;;
16977;SDS011;8605;52.548;4.918;2023-11-21T05:05:05;1681.73;;;999.90;;
16977;SDS011;8605;52.548;4.918;2023-11-21T05:07:34;1618.80;;;999.90;;
16977;SDS011;8605;52.548;4.918;2023-11-21T05:10:03;1502.23;;;999.90;;
16977;SDS011;8605;52.548;4.918;2023-11-21T05:12:34;1570.47;;;999.90;;
16977;SDS011;8605;52.548;4.918;2023-11-21T05:15:04;1550.67;;;999.90;;
16977;SDS011;8605;52.548;4.918;2023-11-21T05:17:37;1647.87;;;999.90;;
16977;SDS011;8605;52.548;4.918;2023-11-21T05:20:08;1641.10;;;999.90;;
16977;SDS011;8605;52.548;4.918;2023-11-21T05:22:37;1705.77;;;999.90;;
16977;SDS011;8605;52.548;4.918;2023-11-21T05:25:05;1675.10;;;999.90;;
16977;SDS011;8605;52.548;4.918;2023-11-21T05:27:34;1611.03;;;999.90;;
16977;SDS011;8605;52.548;4.918;2023-11-21T05:30:02;1614.40;;;999.90;;
16977;SDS011;8605;52.548;4.918;2023-11-21T05:32:33;1649.73;;;999.90;;
16977;SDS011;8605;52.548;4.918;2023-11-21T05:35:03;1600.97;;;999.90;;
16977;SDS011;8605;52.548;4.918;2023-11-21T05:37:35;1565.10;;;999.90;;
16977;SDS011;8605;52.548;4.918;2023-11-21T05:40:05;1641.13;;;999.90;;
16977;SDS011;8605;52.548;4.918;2023-11-21T05:42:34;1588.53;;;999.90;;
16977;SDS011;8605;52.548;4.918;2023-11-21T05:45:02;1648.93;;;999.90;;
16977;SDS011;8605;52.548;4.918;2023-11-21T05:47:36;1704.10;;;999.90;;
16977;SDS011;8605;52.548;4.918;2023-11-21T05:50:07;1551.50;;;999.90;;
16977;SDS011;8605;52.548;4.918;2023-11-21T05:52:38;1646.53;;;999.90;;
16977;SDS011;8605;52.548;4.918;2023-11-21T05:55:06;1603.30;;;999.90;;
16977;SDS011;8605;52.548;4.918;2023-11-21T05:57:35;1594.23;;;999.90;;
16977;SDS011;8605;52.548;4.918;2023-11-21T06:00:04;1490.77;;;999.90;;
16977;SDS011;8605;52.548;4.918;2023-11-21T06:02:37;1584.87;;;999.90;;
16977;SDS011;8605;52.548;4.918;2023-11-21T06:05:06;1500.53;;;999.90;;
16977;SDS011;8605;52.548;4.918;2023-11-21T06:07:37;1640.90;;;999.90;;
16977;SDS011;8605;52.548;4.918;2023-11-21T06:10:07;1541.27;;;999.90;;
16977;SDS011;8605;52.548;4.918;2023-11-21T06:12:36;1589.30;;;999.90;;
16977;SDS011;8605;52.548;4.918;2023-11-21T06:15:04;1524.90;;;999.90;;
16977;SDS011;8605;52.548;4.918;2023-11-21T06:17:35;1500.77;;;999.90;;
16977;SDS011;8605;52.548;4.918;2023-11-21T06:20:04;1529.63;;;999.90;;
16977;SDS011;8605;52.548;4.918;2023-11-21T06:22:37;1586.70;;;999.90;;
16977;SDS011;8605;52.548;4.918;2023-11-21T06:25:07;1573.00;;;999.90;;
16977;SDS011;8605;52.548;4.918;2023-11-21T06:27:37;1566.87;;;999.90;;
16977;SDS011;8605;52.548;4.918;2023-11-21T06:30:06;1625.33;;;999.90;;
16977;SDS011;8605;52.548;4.918;2023-11-21T06:32:36;1541.87;;;999.90;;
16977;SDS011;8605;52.548;4.918;2023-11-21T06:35:06;1556.63;;;999.90;;
16977;SDS011;8605;52.548;4.918;2023-11-21T06:37:37;1615.47;;;999.90;;
16977;SDS011;8605;52.548;4.918;2023-11-21T06:40:06;1627.73;;;999.90;;
16977;SDS011;8605;52.548;4.918;2023-11-21T06:42:36;1625.97;;;999.90;;
16977;SDS011;8605;52.548;4.918;2023-11-21T06:45:05;1518.67;;;999.90;;
16977;SDS011;8605;52.548;4.918;2023-11-21T06:47:33;1568.17;;;999.90;;
16977;SDS011;8605;52.548;4.918;2023-11-21T06:50:01;1510.13;;;999.90;;
16977;SDS011;8605;52.548;4.918;2023-11-21T06:52:30;1548.23;;;999.90;;
16977;SDS011;8605;52.548;4.918;2023-11-21T06:54:59;1588.30;;;999.90;;
16977;SDS011;8605;52.548;4.918;2023-11-21T06:57:27;1572.27;;;999.90;;
16977;SDS011;8605;52.548;4.918;2023-11-21T06:59:54;1503.97;;;999.90;;
16977;SDS011;8605;52.548;4.918;2023-11-21T07:02:23;1541.37;;;999.90;;
16977;SDS011;8605;52.548;4.918;2023-11-21T07:04:51;1585.37;;;999.90;;
16977;SDS011;8605;52.548;4.918;2023-11-21T07:07:19;1554.90;;;999.90;;
16977;SDS011;8605;52.548;4.918;2023-11-21T07:09:47;1593.33;;;999.90;;
16977;SDS011;8605;52.548;4.918;2023-11-21T07:12:16;1515.77;;;999.90;;
16977;SDS011;8605;52.548;4.918;2023-11-21T07:14:44;1529.57;;;999.90;;
16977;SDS011;8605;52.548;4.918;2023-11-21T07:17:12;1554.17;;;999.90;;
16977;SDS011;8605;52.548;4.918;2023-11-21T07:19:40;1550.70;;;999.90;;
16977;SDS011;8605;52.548;4.918;2023-11-21T07:22:08;1512.57;;;999.90;;
16977;SDS011;8605;52.548;4.918;2023-11-21T07:24:36;1504.10;;;999.90;;
16977;SDS011;8605;52.548;4.918;2023-11-21T07:27:04;1510.70;;;999.90;;
16977;SDS011;8605;52.548;4.918;2023-11-21T07:29:33;1532.43;;;999.90;;
16977;SDS011;8605;52.548;4.918;2023-11-21T07:32:00;1574.00;;;999.90;;
16977;SDS011;8605;52.548;4.918;2023-11-21T07:34:28;1538.93;;;999.90;;
16977;SDS011;8605;52.548;4.918;2023-11-21T07:36:56;1506.87;;;999.90;;
16977;SDS011;8605;52.548;4.918;2023-11-21T07:39:24;1574.00;;;999.90;;
16977;SDS011;8605;52.548;4.918;2023-11-21T07:41:52;1569.93;;;999.90;;
16977;SDS011;8605;52.548;4.918;2023-11-21T07:44:20;1535.57;;;999.90;;
16977;SDS011;8605;52.548;4.918;2023-11-21T07:46:49;1546.77;;;999.90;;
16977;SDS011;8605;52.548;4.918;2023-11-21T07:49:17;1540.13;;;999.90;;
16977;SDS011;8605;52.548;4.918;2023-11-21T07:51:47;1513.90;;;999.90;;
16977;SDS011;8605;52.548;4.918;2023-11-21T07:54:15;1519.27;;;999.90;;
16977;SDS011;8605;52.548;4.918;2023-11-21T07:56:43;1533.27;;;999.90;;
16977;SDS011;8605;52.548;4.918;2023-11-21T07:59:11;1498.73;;;999.90;;
16977;SDS011;8605;52.548;4.918;2023-11-21T08:01:40;1482.37;;;999.90;;
16977;SDS011;8605;52.548;4.918;2023-11-21T08:04:11;1563.20;;;999.90;;
16977;SDS011;8605;52.548;4.918;2023-11-21T08:06:39;1537.50;;;999.90;;
16977;SDS011;8605;52.548;4.918;2023-11-21T08:09:08;1468.40;;;999.90;;
16977;SDS011;8605;52.548;4.918;2023-11-21T08:11:36;1486.53;;;999.90;;
16977;SDS011;8605;52.548;4.918;2023-11-21T08:14:05;1495.50;;;999.90;;
16977;SDS011;8605;52.548;4.918;2023-11-21T08:16:33;1616.80;;;999.90;;
16977;SDS011;8605;52.548;4.918;2023-11-21T08:19:01;1588.80;;;999.90;;
16977;SDS011;8605;52.548;4.918;2023-11-21T08:21:30;1535.67;;;999.90;;
16977;SDS011;8605;52.548;4.918;2023-11-21T08:23:58;1503.53;;;999.90;;
16977;SDS011;8605;52.548;4.918;2023-11-21T08:26:26;1488.80;;;999.90;;
16977;SDS011;8605;52.548;4.918;2023-11-21T08:28:54;1506.17;;;999.90;;
16977;SDS011;8605;52.548;4.918;2023-11-21T08:31:23;1738.67;;;999.90;;
16977;SDS011;8605;52.548;4.918;2023-11-21T08:33:52;1508.57;;;999.90;;
16977;SDS011;8605;52.548;4.918;2023-11-21T08:36:21;1459.80;;;999.90;;
16977;SDS011;8605;52.548;4.918;2023-11-21T08:38:51;1476.27;;;999.90;;
16977;SDS011;8605;52.548;4.918;2023-11-21T08:41:19;1530.27;;;999.90;;
16977;SDS011;8605;52.548;4.918;2023-11-21T08:46:18;1544.10;;;999.90;;
16977;SDS011;8605;52.548;4.918;2023-11-21T08:48:47;1492.87;;;999.90;;
16977;SDS011;8605;52.548;4.918;2023-11-21T08:51:15;1502.73;;;999.90;;
16977;SDS011;8605;52.548;4.918;2023-11-21T08:53:43;1462.97;;;999.90;;
16977;SDS011;8605;52.548;4.918;2023-11-21T08:56:13;1548.03;;;999.90;;
16977;SDS011;8605;52.548;4.918;2023-11-21T08:58:41;1507.73;;;999.90;;
16977;SDS011;8605;52.548;4.918;2023-11-21T09:01:09;1512.37;;;999.90;;
16977;SDS011;8605;52.548;4.918;2023-11-21T09:03:38;1476.30;;;999.90;;
16977;SDS011;8605;52.548;4.918;2023-11-21T09:06:11;1483.60;;;999.90;;
16977;SDS011;8605;52.548;4.918;2023-11-21T09:08:40;1503.20;;;999.90;;
16977;SDS011;8605;52.548;4.918;2023-11-21T09:11:09;1541.60;;;999.90;;
16977;SDS011;8605;52.548;4.918;2023-11-21T09:13:39;1505.53;;;999.90;;
16977;SDS011;8605;52.548;4.918;2023-11-21T09:16:07;1461.30;;;999.90;;
16977;SDS011;8605;52.548;4.918;2023-11-21T09:18:35;1511.80;;;999.90;;
16977;SDS011;8605;52.548;4.918;2023-11-21T09:21:04;1478.43;;;999.90;;
16977;SDS011;8605;52.548;4.918;2023-11-21T09:23:33;1450.23;;;999.90;;
16977;SDS011;8605;52.548;4.918;2023-11-21T09:26:00;1432.63;;;999.90;;
16977;SDS011;8605;52.548;4.918;2023-11-21T09:28:28;1547.83;;;999.90;;
16977;SDS011;8605;52.548;4.918;2023-11-21T09:30:57;1447.63;;;999.90;;
16977;SDS011;8605;52.548;4.918;2023-11-21T09:33:25;1470.20;;;999.90;;
16977;SDS011;8605;52.548;4.918;2023-11-21T09:35:53;1507.10;;;999.90;;
16977;SDS011;8605;52.548;4.918;2023-11-21T09:38:21;1550.03;;;999.90;;
16977;SDS011;8605;52.548;4.918;2023-11-21T09:40:48;1503.00;;;999.90;;
16977;SDS011;8605;52.548;4.918;2023-11-21T09:43:17;1479.97;;;999.90;;
16977;SDS011;8605;52.548;4.918;2023-11-21T09:45:46;1505.20;;;999.90;;
16977;SDS011;8605;52.548;4.918;2023-11-21T09:48:18;1515.97;;;999.90;;
16977;SDS011;8605;52.548;4.918;2023-11-21T09:50:48;1486.37;;;999.90;;
16977;SDS011;8605;52.548;4.918;2023-11-21T09:53:20;1493.30;;;999.90;;
16977;SDS011;8605;52.548;4.918;2023-11-21T09:55:51;1615.00;;;999.90;;
16977;SDS011;8605;52.548;4.918;2023-11-21T09:58:20;1509.33;;;999.90;;
16977;SDS011;8605;52.548;4.918;2023-11-21T10:00:52;1512.00;;;999.90;;
16977;SDS011;8605;52.548;4.918;2023-11-21T10:03:23;1552.90;;;999.90;;
16977;SDS011;8605;52.548;4.918;2023-11-21T10:05:51;1542.43;;;999.90;;
16977;SDS011;8605;52.548;4.918;2023-11-21T10:08:21;1402.37;;;999.90;;
16977;SDS011;8605;52.548;4.918;2023-11-21T10:10:51;1413.50;;;999.90;;
16977;SDS011;8605;52.548;4.918;2023-11-21T10:13:21;1462.70;;;999.90;;
16977;SDS011;8605;52.548;4.918;2023-11-21T10:15:49;1441.07;;;999.90;;
16977;SDS011;8605;52.548;4.918;2023-11-21T10:18:19;1382.43;;;999.90;;
16977;SDS011;8605;52.548;4.918;2023-11-21T10:20:50;1423.67;;;999.90;;
16977;SDS011;8605;52.548;4.918;2023-11-21T10:23:20;1419.13;;;999.90;;
16977;SDS011;8605;52.548;4.918;2023-11-21T10:25:50;1476.80;;;999.90;;
16977;SDS011;8605;52.548;4.918;2023-11-21T10:28:19;1437.10;;;999.90;;
16977;SDS011;8605;52.548;4.918;2023-11-21T10:30:48;1455.03;;;999.90;;
16977;SDS011;8605;52.548;4.918;2023-11-21T10:33:16;1474.60;;;999.90;;
16977;SDS011;8605;52.548;4.918;2023-11-21T10:35:44;1469.57;;;999.90;;
16977;SDS011;8605;52.548;4.918;2023-11-21T10:38:19;1450.20;;;999.90;;
16977;SDS011;8605;52.548;4.918;2023-11-21T10:40:48;1481.03;;;999.90;;
16977;SDS011;8605;52.548;4.918;2023-11-21T10:43:17;1473.13;;;999.90;;
16977;SDS011;8605;52.548;4.918;2023-11-21T10:45:45;1466.47;;;999.90;;
16977;SDS011;8605;52.548;4.918;2023-11-21T10:48:13;1406.30;;;999.90;;
16977;SDS011;8605;52.548;4.918;2023-11-21T10:50:43;1384.93;;;999.90;;
16977;SDS011;8605;52.548;4.918;2023-11-21T10:53:11;1414.03;;;999.90;;
16977;SDS011;8605;52.548;4.918;2023-11-21T10:55:41;1431.27;;;999.90;;
16977;SDS011;8605;52.548;4.918;2023-11-21T10:58:11;1385.73;;;999.90;;
16977;SDS011;8605;52.548;4.918;2023-11-21T11:00:41;1373.93;;;999.90;;
16977;SDS011;8605;52.548;4.918;2023-11-21T11:03:11;1489.43;;;999.90;;
16977;SDS011;8605;52.548;4.918;2023-11-21T11:05:43;1436.40;;;999.90;;
16977;SDS011;8605;52.548;4.918;2023-11-21T11:08:18;1384.13;;;999.90;;
16977;SDS011;8605;52.548;4.918;2023-11-21T11:10:51;1446.20;;;999.90;;
16977;SDS011;8605;52.548;4.918;2023-11-21T11:13:19;1389.57;;;999.90;;
16977;SDS011;8605;52.548;4.918;2023-11-21T11:15:47;1418.27;;;999.90;;
16977;SDS011;8605;52.548;4.918;2023-11-21T11:18:15;1412.80;;;999.90;;
16977;SDS011;8605;52.548;4.918;2023-11-21T11:20:44;1430.97;;;999.90;;
16977;SDS011;8605;52.548;4.918;2023-11-21T11:23:21;1458.33;;;999.90;;
16977;SDS011;8605;52.548;4.918;2023-11-21T11:26:05;1435.10;;;999.90;;
16977;SDS011;8605;52.548;4.918;2023-11-21T11:28:43;1426.07;;;999.90;;
16977;SDS011;8605;52.548;4.918;2023-11-21T11:31:17;1456.37;;;999.90;;
16977;SDS011;8605;52.548;4.918;2023-11-21T11:33:57;1451.47;;;999.90;;
16977;SDS011;8605;52.548;4.918;2023-11-21T11:36:34;1373.60;;;999.90;;
16977;SDS011;8605;52.548;4.918;2023-11-21T11:39:15;1380.93;;;999.90;;
16977;SDS011;8605;52.548;4.918;2023-11-21T11:41:56;1457.37;;;999.90;;
16977;SDS011;8605;52.548;4.918;2023-11-21T11:47:24;1438.20;;;999.90;;
16977;SDS011;8605;52.548;4.918;2023-11-21T11:49:58;1420.50;;;999.90;;
16977;SDS011;8605;52.548;4.918;2023-11-21T11:52:37;1367.83;;;999.90;;
16977;SDS011;8605;52.548;4.918;2023-11-21T11:55:07;1426.57;;;999.90;;
16977;SDS011;8605;52.548;4.918;2023-11-21T11:57:41;1352.03;;;999.90;;
16977;SDS011;8605;52.548;4.918;2023-11-21T12:00:11;1345.77;;;999.90;;
16977;SDS011;8605;52.548;4.918;2023-11-21T12:02:44;1390.10;;;999.90;;
16977;SDS011;8605;52.548;4.918;2023-11-21T12:05:14;1373.93;;;999.90;;
16977;SDS011;8605;52.548;4.918;2023-11-21T12:07:45;1366.10;;;999.90;;
16977;SDS011;8605;52.548;4.918;2023-11-21T12:10:13;1374.93;;;999.90;;
16977;SDS011;8605;52.548;4.918;2023-11-21T12:12:46;1385.07;;;999.90;;
16977;SDS011;8605;52.548;4.918;2023-11-21T12:15:15;1378.97;;;999.90;;
16977;SDS011;8605;52.548;4.918;2023-11-21T12:17:43;1385.83;;;999.90;;
16977;SDS011;8605;52.548;4.918;2023-11-21T12:20:12;1367.43;;;999.90;;
16977;SDS011;8605;52.548;4.918;2023-11-21T12:22:44;1393.07;;;999.90;;
16977;SDS011;8605;52.548;4.918;2023-11-21T12:25:16;1420.57;;;999.90;;
16977;SDS011;8605;52.548;4.918;2023-11-21T12:27:47;1407.67;;;999.90;;
16977;SDS011;8605;52.548;4.918;2023-11-21T12:30:17;1353.37;;;999.90;;
16977;SDS011;8605;52.548;4.918;2023-11-21T12:32:47;1388.17;;;999.90;;
16977;SDS011;8605;52.548;4.918;2023-11-21T12:35:17;1383.53;;;999.90;;
16977;SDS011;8605;52.548;4.918;2023-11-21T12:37:47;1370.10;;;999.90;;
16977;SDS011;8605;52.548;4.918;2023-11-21T12:40:16;1389.57;;;999.90;;
16977;SDS011;8605;52.548;4.918;2023-11-21T12:42:44;1379.70;;;999.90;;
16977;SDS011;8605;52.548;4.918;2023-11-21T12:45:18;1363.13;;;999.90;;
16977;SDS011;8605;52.548;4.918;2023-11-21T12:47:47;1384.33;;;999.90;;
16977;SDS011;8605;52.548;4.918;2023-11-21T12:50:18;1353.13;;;999.90;;
16977;SDS011;8605;52.548;4.918;2023-11-21T12:52:50;1359.20;;;999.90;;
16977;SDS011;8605;52.548;4.918;2023-11-21T12:55:20;1413.37;;;999.90;;
16977;SDS011;8605;52.548;4.918;2023-11-21T12:57:50;1356.03;;;999.90;;
16977;SDS011;8605;52.548;4.918;2023-11-21T13:00:28;1381.93;;;999.90;;
16977;SDS011;8605;52.548;4.918;2023-11-21T13:02:59;1382.47;;;999.90;;
16977;SDS011;8605;52.548;4.918;2023-11-21T13:05:27;1476.77;;;999.90;;
16977;SDS011;8605;52.548;4.918;2023-11-21T13:08:02;1348.17;;;999.90;;
16977;SDS011;8605;52.548;4.918;2023-11-21T13:10:34;1386.90;;;999.90;;
16977;SDS011;8605;52.548;4.918;2023-11-21T13:13:05;1403.90;;;999.90;;
16977;SDS011;8605;52.548;4.918;2023-11-21T13:15:38;1340.23;;;999.90;;
16977;SDS011;8605;52.548;4.918;2023-11-21T13:18:07;1351.93;;;999.90;;
16977;SDS011;8605;52.548;4.918;2023-11-21T13:20:37;1389.67;;;999.90;;
16977;SDS011;8605;52.548;4.918;2023-11-21T13:23:09;1346.53;;;999.90;;
16977;SDS011;8605;52.548;4.918;2023-11-21T13:25:38;1442.90;;;999.90;;
16977;SDS011;8605;52.548;4.918;2023-11-21T13:28:09;1411.47;;;999.90;;
16977;SDS011;8605;52.548;4.918;2023-11-21T13:30:39;1385.13;;;999.90;;
16977;SDS011;8605;52.548;4.918;2023-11-21T13:33:08;1441.23;;;999.90;;
16977;SDS011;8605;52.548;4.918;2023-11-21T13:35:45;1420.33;;;999.90;;
16977;SDS011;8605;52.548;4.918;2023-11-21T13:38:16;1385.90;;;999.90;;
16977;SDS011;8605;52.548;4.918;2023-11-21T13:40:49;1471.17;;;999.90;;
16977;SDS011;8605;52.548;4.918;2023-11-21T13:43:21;1435.83;;;999.90;;
16977;SDS011;8605;52.548;4.918;2023-11-21T13:45:52;1422.17;;;999.90;;
16977;SDS011;8605;52.548;4.918;2023-11-21T13:48:26;1380.37;;;999.90;;
16977;SDS011;8605;52.548;4.918;2023-11-21T13:51:00;1362.53;;;999.90;;
16977;SDS011;8605;52.548;4.918;2023-11-21T13:53:36;1415.73;;;999.90;;
16977;SDS011;8605;52.548;4.918;2023-11-21T13:56:05;1390.77;;;999.90;;
16977;SDS011;8605;52.548;4.918;2023-11-21T13:58:35;1409.13;;;999.90;;
16977;SDS011;8605;52.548;4.918;2023-11-21T14:01:11;1425.70;;;999.90;;
16977;SDS011;8605;52.548;4.918;2023-11-21T14:03:56;1402.30;;;999.90;;
16977;SDS011;8605;52.548;4.918;2023-11-21T14:06:29;1429.00;;;999.90;;
16977;SDS011;8605;52.548;4.918;2023-11-21T14:09:00;1421.57;;;999.90;;
16977;SDS011;8605;52.548;4.918;2023-11-21T14:11:33;1396.93;;;999.90;;
16977;SDS011;8605;52.548;4.918;2023-11-21T14:14:14;1360.93;;;999.90;;